• Join FlightAware (Why Join?)
  • Login
  • US Flag 
01:11AM EST


 

Airport Tracker/Info


-or-


 

Live Flight TrackerFlight Track Log ✈ N27XP ✈ 25-Jul-2013 ✈ KSOP - KABE

Flight Track Log - Related Links

Times and Time Zones

All times are in EDT time to prevent confusion due to time zone crossing. See the N27XP flight status page for this flight to view local times or setup timezone preferences in your user account.

Time Position Orientation Groundspeed Altitude Reporting Facility
EDT Latitude Longitude Course Direction KTS MPH feet Rate Location/Type
10:26AM 35.4428 -79.5131 36° Northeast 256 295 9,600  Level Washington Center
10:27AM 35.4875 -79.4925 21° North 308 354 10,000 480 Climbing Washington Center
10:28AM 35.5806 -79.4483 21° North 355 409 10,500 1,380 Climbing Washington Center
10:29AM 35.6311 -79.4070 28° Northeast  Level FlightAware Approximate
10:29AM 35.6808 -79.3792 29° Northeast 344 396 13,100  Level Washington Center
10:30AM 35.7185 -79.3373 36° Northeast  Level FlightAware Approximate
10:30AM 35.7600 -79.3164 33° Northeast 349 402 14,900  Level Washington Center
10:31AM 35.8031 -79.2621 36° Northeast  Level FlightAware Approximate
10:31AM 35.8414 -79.2483 34° Northeast 349 402 17,100  Level Washington Center
10:32AM 35.9247 -79.1856 31° Northeast 349 402 18,600 1,620 Climbing Washington Center
10:33AM 36.0061 -79.1147 35° Northeast 349 402 20,400 1,740 Climbing Washington Center
10:34AM 36.0917 -79.0467 33° Northeast 354 407 22,100 1,860 Climbing Washington Center
10:35AM 36.1769 -78.9783 33° Northeast 361 415 24,100 1,860 Climbing Washington Center
10:36AM 36.2625 -78.9072 34° Northeast 361 415 25,900 1,620 Climbing Washington Center
10:37AM 36.3478 -78.8361 34° Northeast 361 415 27,400 1,320 Climbing Washington Center
10:38AM 36.4375 -78.7650 33° Northeast 361 415 28,600 780 Climbing Washington Center
10:39AM 36.5272 -78.6858 35° Northeast 379 436 29,000 180 Climbing Washington Center
10:40AM 36.6272 -78.6019 34° Northeast 408 470 29,000  Level Washington Center
10:41AM 36.7319 -78.5075 36° Northeast 434 499 29,000  Level Washington Center
10:42AM 36.8300 -78.4231 35° Northeast 463 533 29,000  Level Washington Center
10:43AM 36.9425 -78.3308 33° Northeast 476 548 29,000 -240 Level Washington Center
10:44AM 37.0553 -78.2361 34° Northeast 476 548 28,600 -600 Descending Washington Center
10:45AM 37.1806 -78.1336 33° Northeast 482 555 27,800 -720 Descending Washington Center
10:46AM 37.2847 -78.0456 34° Northeast 490 564 27,200 -420 Descending Washington Center
10:47AM 37.4100 -77.9372 34° Northeast 495 570 27,000 -120 Descending Washington Center
10:48AM 37.5258 -77.8778 22° Northeast 488 562 27,000  Level Washington Center
10:49AM 37.6725 -77.8378 12° North 477 549 27,000  Level Washington Center
10:50AM 37.8067 -77.7997 13° North 477 549 27,000  Level Washington Center
10:51AM 37.9386 -77.7667 11° North 484 557 27,000  Level Washington Center
10:52AM 38.0561 -77.7383 11° North 486 559 27,000  Level Washington Center
10:53AM 38.1922 -77.7053 11° North 486 559 27,000  Level Washington Center
10:54AM 38.3278 -77.7011 North 486 559 27,000  Level Washington Center
10:55AM 38.4628 -77.7289 351° North 481 554 27,000 -840 Level Washington Center
10:56AM 38.5950 -77.6847 15° North 476 548 25,400 -720 Descending Washington Center
10:58AM 38.8531 -77.5828 17° North 476 548 25,000 -180 Descending Washington Center
10:59AM 38.9992 -77.5761 North 481 554 25,000  Level Washington Center
11:00AM 39.1328 -77.5717 North 481 554 25,000 -300 Level Washington Center
11:01AM 39.2683 -77.5647 North 481 554 24,500 -1,320 Descending Washington Center
11:02AM 39.3933 -77.5653 360° North 469 540 22,500 -2,100 Descending Washington Center
11:03AM 39.5094 -77.6036 346° North 452 520 20,300 -1,740 Descending Washington Center
11:04AM 39.6169 -77.6469 343° North 425 489 19,000 -660 Descending Washington Center
11:05AM 39.7297 -77.6367 North 410 472 19,000  Level Washington Center
11:06AM 39.8828 -77.5561 22° Northeast 388 447 19,000  Level New York Center
11:07AM 39.9508 -77.4600 47° Northeast 393 452 19,000  Level New York Center
11:08AM 40.0028 -77.3158 65° Northeast 393 452 19,000  Level New York Center
11:09AM 40.0450 -77.1947 65° Northeast 393 452 19,000  Level New York Center
11:10AM 40.0944 -77.0475 66° East 398 458 19,000  Level New York Center
11:11AM 40.1342 -76.9289 66° East 405 466 19,000 -60 Level New York Center
11:12AM 40.1836 -76.7783 67° East 410 472 18,900 -1,020 Descending New York Center
11:13AM 40.2250 -76.6594 65° Northeast 410 472 17,100 -1,920 Descending New York Center
11:14AM 40.2689 -76.5300 66° East 403 464 15,200 -2,220 Descending New York Center
11:15AM 40.3131 -76.3919 67° East 382 440 12,700 -2,040 Descending New York Center
11:16AM 40.3542 -76.2728 66° East 366 421 11,100 -900 Descending New York Center
11:17AM 40.3908 -76.1558 68° East 350 403 11,000 -480 Descending New York Center
11:18AM 40.4294 -76.0414 66° East 350 403 10,200 -1,020 Descending New York Center
11:19AM 40.4633 -75.9294 68° East 345 397 9,000 -600 Descending New York Center
11:20AM 40.5147 -75.8542 48° Northeast 287 330 9,000 -360 Level New York Center
11:21AM 40.5786 -75.8233 20° North 261 300 8,300 -1,500 Descending New York Center
11:22AM 40.5736 -75.7411 95° East 205 236 6,100 -2,340 Descending New York Center
11:23AM 40.5225 -75.6664 132° Southeast 222 255 3,700 -1,560 Descending New York Center
11:24AM 40.5586 -75.5978 55° Northeast 198 228 3,000 -600 Descending New York Center
11:25AM 40.5878 -75.5506 51° Northeast 176 203 2,500 -660 Descending New York Center
11:26AM 40.6081 -75.5139 54° Northeast 137 158 1,800 -720 Descending New York Center
11:27AM 40.6303 -75.4772 51° Northeast 122 140 1,200 3,540 Descending New York Center
11:28AM 40.6525 -75.4431 49° Northeast 122 140 9,000 3,780 Climbing New York Center
11:29AM 40.6744 -75.4117 47° Northeast 122 140 9,000  Level New York Center
11:30AM 40.6967 -75.3778 49° Northeast 122 140 9,000  Level New York Center
11:31AM 40.7144 -75.3514 48° Northeast 122 140 9,000  Level New York Center
11:33AM 40.7144 -75.3514 11° North 122 140 9,000  Level New York Center